sensor_id;sensor_type;location;lat;lon;timestamp;pressure;altitude;pressure_sealevel;temperature;humidity
40596;BME280;26304;48.794;9.820;2024-02-23T00:00:07;94375.03;;;16.45;56.71
40596;BME280;26304;48.794;9.820;2024-02-23T00:02:32;94382.13;;;16.45;57.14
40596;BME280;26304;48.794;9.820;2024-02-23T00:04:54;94385.91;;;16.44;56.64
40596;BME280;26304;48.794;9.820;2024-02-23T00:07:18;94385.56;;;16.42;56.93
40596;BME280;26304;48.794;9.820;2024-02-23T00:09:41;94386.66;;;16.44;56.51
40596;BME280;26304;48.794;9.820;2024-02-23T00:12:03;94383.69;;;16.42;56.73
40596;BME280;26304;48.794;9.820;2024-02-23T00:14:26;94372.03;;;16.43;57.12
40596;BME280;26304;48.794;9.820;2024-02-23T00:16:49;94367.56;;;16.44;56.83
40596;BME280;26304;48.794;9.820;2024-02-23T00:19:11;94393.44;;;16.42;56.64
40596;BME280;26304;48.794;9.820;2024-02-23T00:21:34;94389.66;;;16.43;56.69
40596;BME280;26304;48.794;9.820;2024-02-23T00:23:58;94398.66;;;16.42;57.02
40596;BME280;26304;48.794;9.820;2024-02-23T00:26:20;94396.41;;;16.44;56.39
40596;BME280;26304;48.794;9.820;2024-02-23T00:28:42;94406.13;;;16.43;56.92
40596;BME280;26304;48.794;9.820;2024-02-23T00:31:05;94397.53;;;16.43;56.43
40596;BME280;26304;48.794;9.820;2024-02-23T00:33:27;94405.06;;;16.41;56.45
40596;BME280;26304;48.794;9.820;2024-02-23T00:35:49;94414.88;;;16.37;56.43
40596;BME280;26304;48.794;9.820;2024-02-23T00:38:12;94424.25;;;16.38;56.74
40596;BME280;26304;48.794;9.820;2024-02-23T00:40:36;94434.31;;;16.39;56.30
40596;BME280;26304;48.794;9.820;2024-02-23T00:42:59;94431.69;;;16.39;56.63
40596;BME280;26304;48.794;9.820;2024-02-23T00:45:22;94434.41;;;16.36;56.30
40596;BME280;26304;48.794;9.820;2024-02-23T00:47:44;94443.06;;;16.32;56.80
40596;BME280;26304;48.794;9.820;2024-02-23T00:50:08;94442.31;;;16.32;56.67
40596;BME280;26304;48.794;9.820;2024-02-23T00:52:31;94437.47;;;16.30;56.46
40596;BME280;26304;48.794;9.820;2024-02-23T00:54:55;94432.63;;;16.29;56.63
40596;BME280;26304;48.794;9.820;2024-02-23T00:57:18;94431.88;;;16.28;56.39
40596;BME280;26304;48.794;9.820;2024-02-23T00:59:48;94444.72;;;16.23;56.89
40596;BME280;26304;48.794;9.820;2024-02-23T01:02:10;94441.72;;;16.24;56.84
40596;BME280;26304;48.794;9.820;2024-02-23T01:04:33;94435.78;;;16.20;56.69
40596;BME280;26304;48.794;9.820;2024-02-23T01:06:55;94433.16;;;16.20;56.28
40596;BME280;26304;48.794;9.820;2024-02-23T01:09:17;94429.81;;;16.20;56.71
40596;BME280;26304;48.794;9.820;2024-02-23T01:11:41;94434.28;;;16.19;56.28
40596;BME280;26304;48.794;9.820;2024-02-23T01:14:05;94436.50;;;16.21;56.04
40596;BME280;26304;48.794;9.820;2024-02-23T01:16:27;94436.56;;;16.17;56.61
40596;BME280;26304;48.794;9.820;2024-02-23T01:18:50;94447.06;;;16.17;56.76
40596;BME280;26304;48.794;9.820;2024-02-23T01:21:13;94432.47;;;16.16;56.25
40596;BME280;26304;48.794;9.820;2024-02-23T01:23:35;94448.56;;;16.18;56.99
40596;BME280;26304;48.794;9.820;2024-02-23T01:25:58;94446.66;;;16.19;56.23
40596;BME280;26304;48.794;9.820;2024-02-23T01:28:21;94442.22;;;16.15;56.25
40596;BME280;26304;48.794;9.820;2024-02-23T01:30:45;94438.13;;;16.14;56.70
40596;BME280;26304;48.794;9.820;2024-02-23T01:33:07;94434.69;;;16.17;56.41
40596;BME280;26304;48.794;9.820;2024-02-23T01:35:29;94426.03;;;16.21;56.10
40596;BME280;26304;48.794;9.820;2024-02-23T01:37:53;94433.56;;;16.19;56.23
40596;BME280;26304;48.794;9.820;2024-02-23T01:40:15;94442.56;;;16.17;56.37
40596;BME280;26304;48.794;9.820;2024-02-23T01:42:38;94432.94;;;16.11;56.36
40596;BME280;26304;48.794;9.820;2024-02-23T01:45:00;94445.66;;;16.12;56.64
40596;BME280;26304;48.794;9.820;2024-02-23T01:47:27;94428.84;;;16.10;56.84
40596;BME280;26304;48.794;9.820;2024-02-23T01:49:51;94446.44;;;16.09;56.39
40596;BME280;26304;48.794;9.820;2024-02-23T01:52:14;94443.41;;;16.11;56.51
40596;BME280;26304;48.794;9.820;2024-02-23T01:54:37;94446.78;;;16.11;56.68
40596;BME280;26304;48.794;9.820;2024-02-23T01:57:00;94456.84;;;16.13;56.57
40596;BME280;26304;48.794;9.820;2024-02-23T01:59:23;94456.84;;;16.13;56.48
40596;BME280;26304;48.794;9.820;2024-02-23T02:01:47;94458.00;;;16.12;56.60
40596;BME280;26304;48.794;9.820;2024-02-23T02:04:10;94452.44;;;16.10;56.62
40596;BME280;26304;48.794;9.820;2024-02-23T02:06:33;94463.31;;;16.08;56.81
40596;BME280;26304;48.794;9.820;2024-02-23T02:08:55;94472.25;;;16.11;56.36
40596;BME280;26304;48.794;9.820;2024-02-23T02:11:18;94454.63;;;16.11;56.57
40596;BME280;26304;48.794;9.820;2024-02-23T02:13:40;94457.69;;;16.10;56.23
40596;BME280;26304;48.794;9.820;2024-02-23T02:16:03;94459.16;;;16.11;56.56
40596;BME280;26304;48.794;9.820;2024-02-23T02:18:26;94465.13;;;16.11;56.19
40596;BME280;26304;48.794;9.820;2024-02-23T02:20:54;94459.53;;;16.09;56.19
40596;BME280;26304;48.794;9.820;2024-02-23T02:23:17;94459.53;;;16.09;56.37
40596;BME280;26304;48.794;9.820;2024-02-23T02:25:40;94468.16;;;16.10;56.40
40596;BME280;26304;48.794;9.820;2024-02-23T02:28:06;94463.38;;;16.05;56.20
40596;BME280;26304;48.794;9.820;2024-02-23T02:30:28;94465.97;;;16.05;56.25
40596;BME280;26304;48.794;9.820;2024-02-23T02:32:50;94473.06;;;16.08;56.22
40596;BME280;26304;48.794;9.820;2024-02-23T02:35:13;94469.75;;;16.04;56.32
40596;BME280;26304;48.794;9.820;2024-02-23T02:37:37;94464.91;;;16.02;56.49
40596;BME280;26304;48.794;9.820;2024-02-23T02:39:59;94463.03;;;16.03;56.30
40596;BME280;26304;48.794;9.820;2024-02-23T02:42:22;94461.53;;;16.02;56.45
40596;BME280;26304;48.794;9.820;2024-02-23T02:44:44;94460.41;;;16.03;56.28
40596;BME280;26304;48.794;9.820;2024-02-23T02:47:07;94455.56;;;16.01;56.43
40596;BME280;26304;48.794;9.820;2024-02-23T02:49:29;94465.31;;;16.01;55.94
40596;BME280;26304;48.794;9.820;2024-02-23T02:51:52;94453.00;;;15.97;56.13
40596;BME280;26304;48.794;9.820;2024-02-23T02:54:15;94447.38;;;15.99;56.51
40596;BME280;26304;48.794;9.820;2024-02-23T02:56:42;94458.59;;;16.00;56.26
40596;BME280;26304;48.794;9.820;2024-02-23T02:59:04;94468.34;;;15.99;56.42
40596;BME280;26304;48.794;9.820;2024-02-23T03:01:26;94476.59;;;15.97;56.38
40596;BME280;26304;48.794;9.820;2024-02-23T03:03:49;94484.84;;;15.96;56.21
40596;BME280;26304;48.794;9.820;2024-02-23T03:06:11;94486.72;;;15.95;56.01
40596;BME280;26304;48.794;9.820;2024-02-23T03:08:34;94481.91;;;15.94;55.94
40596;BME280;26304;48.794;9.820;2024-02-23T03:10:57;94476.66;;;15.94;56.01
40596;BME280;26304;48.794;9.820;2024-02-23T03:13:20;94487.19;;;15.90;56.44
40596;BME280;26304;48.794;9.820;2024-02-23T03:15:42;94481.91;;;15.94;56.05
40596;BME280;26304;48.794;9.820;2024-02-23T03:18:05;94486.38;;;15.93;55.99
40596;BME280;26304;48.794;9.820;2024-02-23T03:20:30;94478.97;;;15.88;56.14
40596;BME280;26304;48.794;9.820;2024-02-23T03:22:52;94475.97;;;15.90;56.18
40596;BME280;26304;48.794;9.820;2024-02-23T03:25:16;94470.00;;;15.89;55.99
40596;BME280;26304;48.794;9.820;2024-02-23T03:27:39;94467.75;;;15.88;56.69
40596;BME280;26304;48.794;9.820;2024-02-23T03:30:02;94465.16;;;15.88;56.19
40596;BME280;26304;48.794;9.820;2024-02-23T03:32:25;94455.06;;;15.86;56.31
40596;BME280;26304;48.794;9.820;2024-02-23T03:34:48;94441.59;;;15.84;56.56
40596;BME280;26304;48.794;9.820;2024-02-23T03:37:10;94463.31;;;15.85;56.51
40596;BME280;26304;48.794;9.820;2024-02-23T03:39:32;94457.00;;;15.82;56.31
40596;BME280;26304;48.794;9.820;2024-02-23T03:41:55;94439.38;;;15.83;56.35
40596;BME280;26304;48.794;9.820;2024-02-23T03:44:19;94448.41;;;15.82;56.38
40596;BME280;26304;48.794;9.820;2024-02-23T03:46:41;94461.44;;;15.85;56.04
40596;BME280;26304;48.794;9.820;2024-02-23T03:49:03;94467.81;;;15.84;56.33
40596;BME280;26304;48.794;9.820;2024-02-23T03:51:26;94486.13;;;15.84;56.48
40596;BME280;26304;48.794;9.820;2024-02-23T03:53:48;94501.53;;;15.82;56.26
40596;BME280;26304;48.794;9.820;2024-02-23T03:56:11;94495.16;;;15.83;56.05
40596;BME280;26304;48.794;9.820;2024-02-23T03:58:33;94498.91;;;15.82;56.17
40596;BME280;26304;48.794;9.820;2024-02-23T04:00:57;94509.72;;;15.84;56.50
40596;BME280;26304;48.794;9.820;2024-02-23T04:03:19;94511.59;;;15.84;56.03
40596;BME280;26304;48.794;9.820;2024-02-23T04:05:42;94512.75;;;15.83;56.80
40596;BME280;26304;48.794;9.820;2024-02-23T04:08:05;94506.81;;;15.78;56.59
40596;BME280;26304;48.794;9.820;2024-02-23T04:10:27;94509.84;;;15.77;56.20
40596;BME280;26304;48.794;9.820;2024-02-23T04:12:49;94506.50;;;15.76;56.83
40596;BME280;26304;48.794;9.820;2024-02-23T04:15:12;94505.38;;;15.74;56.34
40596;BME280;26304;48.794;9.820;2024-02-23T04:17:36;94515.84;;;15.74;56.06
40596;BME280;26304;48.794;9.820;2024-02-23T04:20:00;94519.94;;;15.75;56.53
40596;BME280;26304;48.794;9.820;2024-02-23T04:22:22;94531.91;;;15.76;56.66
40596;BME280;26304;48.794;9.820;2024-02-23T04:24:45;94529.28;;;15.76;56.97
40596;BME280;26304;48.794;9.820;2024-02-23T04:27:08;94519.06;;;15.85;56.36
40596;BME280;26304;48.794;9.820;2024-02-23T04:29:30;94514.28;;;15.80;56.48
40596;BME280;26304;48.794;9.820;2024-02-23T04:31:53;94526.66;;;15.79;56.69
40596;BME280;26304;48.794;9.820;2024-02-23T04:34:17;94528.47;;;15.83;56.55
40596;BME280;26304;48.794;9.820;2024-02-23T04:36:39;94514.28;;;15.80;56.77
40596;BME280;26304;48.794;9.820;2024-02-23T04:39:01;94511.34;;;15.78;56.72
40596;BME280;26304;48.794;9.820;2024-02-23T04:41:24;94510.94;;;15.76;57.06
40596;BME280;26304;48.794;9.820;2024-02-23T04:43:46;94510.19;;;15.79;57.14
40596;BME280;26304;48.794;9.820;2024-02-23T04:46:09;94502.34;;;15.75;57.12
40596;BME280;26304;48.794;9.820;2024-02-23T04:48:31;94501.97;;;15.77;57.07
40596;BME280;26304;48.794;9.820;2024-02-23T04:50:55;94504.19;;;15.78;57.01
40596;BME280;26304;48.794;9.820;2024-02-23T04:53:17;94523.69;;;15.74;56.82
40596;BME280;26304;48.794;9.820;2024-02-23T04:55:40;94518.03;;;15.79;56.61
40596;BME280;26304;48.794;9.820;2024-02-23T04:58:03;94500.66;;;15.89;56.99
40596;BME280;26304;48.794;9.820;2024-02-23T05:00:25;94487.97;;;15.87;56.89
40596;BME280;26304;48.794;9.820;2024-02-23T05:02:54;94492.41;;;15.90;56.33
40596;BME280;26304;48.794;9.820;2024-02-23T05:05:16;94492.88;;;15.85;56.43
40596;BME280;26304;48.794;9.820;2024-02-23T05:07:40;94507.47;;;15.86;56.79
40596;BME280;26304;48.794;9.820;2024-02-23T05:10:02;94504.84;;;15.86;56.88
40596;BME280;26304;48.794;9.820;2024-02-23T05:12:25;94493.91;;;15.91;56.54
40596;BME280;26304;48.794;9.820;2024-02-23T05:14:47;94495.50;;;15.85;57.10
40596;BME280;26304;48.794;9.820;2024-02-23T05:17:10;94498.44;;;15.87;57.26
40596;BME280;26304;48.794;9.820;2024-02-23T05:19:32;94505.34;;;16.01;57.06
40596;BME280;26304;48.794;9.820;2024-02-23T05:21:55;94496.88;;;16.17;56.75
40596;BME280;26304;48.794;9.820;2024-02-23T05:24:18;94488.53;;;16.22;57.03
40596;BME280;26304;48.794;9.820;2024-02-23T05:26:41;94486.53;;;16.30;58.00
40596;BME280;26304;48.794;9.820;2024-02-23T05:29:05;94507.09;;;16.55;59.17
40596;BME280;26304;48.794;9.820;2024-02-23T05:31:45;94518.88;;;16.47;58.62
40596;BME280;26304;48.794;9.820;2024-02-23T05:34:08;94500.50;;;16.47;58.12
40596;BME280;26304;48.794;9.820;2024-02-23T05:36:31;94505.06;;;16.43;58.23
40596;BME280;26304;48.794;9.820;2024-02-23T05:38:53;94499.75;;;16.46;57.50
40596;BME280;26304;48.794;9.820;2024-02-23T05:41:17;94504.50;;;16.31;58.49
40596;BME280;26304;48.794;9.820;2024-02-23T05:43:39;94503.22;;;16.40;57.72
40596;BME280;26304;48.794;9.820;2024-02-23T05:46:02;94504.25;;;16.46;57.45
40596;BME280;26304;48.794;9.820;2024-02-23T05:48:25;94512.53;;;16.44;57.64
40596;BME280;26304;48.794;9.820;2024-02-23T05:50:47;94538.03;;;16.44;57.93
40596;BME280;26304;48.794;9.820;2024-02-23T05:53:10;94546.78;;;16.33;57.88
40596;BME280;26304;48.794;9.820;2024-02-23T05:55:32;94533.81;;;16.26;57.84
40596;BME280;26304;48.794;9.820;2024-02-23T05:57:56;94535.41;;;16.20;57.82
40596;BME280;26304;48.794;9.820;2024-02-23T06:00:19;94548.50;;;16.20;58.00
40596;BME280;26304;48.794;9.820;2024-02-23T06:02:42;94556.81;;;16.15;58.20
40596;BME280;26304;48.794;9.820;2024-02-23T06:05:05;94560.97;;;16.12;57.91
40596;BME280;26304;48.794;9.820;2024-02-23T06:07:28;94567.41;;;16.08;58.05
40596;BME280;26304;48.794;9.820;2024-02-23T06:09:51;94564.72;;;16.11;58.25
40596;BME280;26304;48.794;9.820;2024-02-23T06:12:13;94559.09;;;16.13;58.84
40596;BME280;26304;48.794;9.820;2024-02-23T06:14:37;94560.81;;;16.23;58.26
40596;BME280;26304;48.794;9.820;2024-02-23T06:16:59;94563.19;;;16.14;59.01
40596;BME280;26304;48.794;9.820;2024-02-23T06:19:22;94563.25;;;16.10;58.32
40596;BME280;26304;48.794;9.820;2024-02-23T06:21:47;94558.13;;;16.03;58.87
40596;BME280;26304;48.794;9.820;2024-02-23T06:24:10;94558.88;;;16.04;58.85
40596;BME280;26304;48.794;9.820;2024-02-23T06:26:32;94560.72;;;16.03;58.26
40596;BME280;26304;48.794;9.820;2024-02-23T06:28:54;94557.38;;;16.03;58.78
40596;BME280;26304;48.794;9.820;2024-02-23T06:31:18;94542.84;;;15.98;59.07
40596;BME280;26304;48.794;9.820;2024-02-23T06:33:41;94544.72;;;15.97;59.10
40596;BME280;26304;48.794;9.820;2024-02-23T06:36:04;94545.13;;;15.96;58.67
40596;BME280;26304;48.794;9.820;2024-02-23T06:38:26;94541.34;;;15.97;58.98
40596;BME280;26304;48.794;9.820;2024-02-23T06:40:49;94537.53;;;16.02;58.88
40596;BME280;26304;48.794;9.820;2024-02-23T06:43:12;94533.78;;;16.03;58.95
40596;BME280;26304;48.794;9.820;2024-02-23T06:45:34;94529.69;;;16.02;58.80
40596;BME280;26304;48.794;9.820;2024-02-23T06:47:58;94530.44;;;16.02;59.39
40596;BME280;26304;48.794;9.820;2024-02-23T06:50:20;94531.97;;;16.00;58.90
40596;BME280;26304;48.794;9.820;2024-02-23T06:52:43;94537.53;;;16.02;58.74
40596;BME280;26304;48.794;9.820;2024-02-23T06:55:06;94540.91;;;16.02;58.90
40596;BME280;26304;48.794;9.820;2024-02-23T06:57:30;94542.44;;;16.00;59.17
40596;BME280;26304;48.794;9.820;2024-02-23T06:59:53;94531.63;;;15.97;58.79
40596;BME280;26304;48.794;9.820;2024-02-23T07:02:15;94526.03;;;15.95;59.37
40596;BME280;26304;48.794;9.820;2024-02-23T07:04:39;94521.94;;;15.94;58.88
40596;BME280;26304;48.794;9.820;2024-02-23T07:07:01;94523.41;;;15.95;59.15
40596;BME280;26304;48.794;9.820;2024-02-23T07:09:28;94535.44;;;15.93;59.08
40596;BME280;26304;48.794;9.820;2024-02-23T07:11:50;94541.06;;;15.91;59.33
40596;BME280;26304;48.794;9.820;2024-02-23T07:14:13;94547.44;;;15.90;58.91
40596;BME280;26304;48.794;9.820;2024-02-23T07:16:38;94565.84;;;15.87;58.51
40596;BME280;26304;48.794;9.820;2024-02-23T07:19:01;94568.84;;;15.85;59.02
40596;BME280;26304;48.794;9.820;2024-02-23T07:21:25;94586.41;;;15.88;59.19
40596;BME280;26304;48.794;9.820;2024-02-23T07:23:47;94581.16;;;15.88;58.83
40596;BME280;26304;48.794;9.820;2024-02-23T07:26:10;94587.53;;;15.87;58.94
40596;BME280;26304;48.794;9.820;2024-02-23T07:28:32;94588.28;;;15.88;58.99
40596;BME280;26304;48.794;9.820;2024-02-23T07:30:54;94587.53;;;15.87;59.06
40596;BME280;26304;48.794;9.820;2024-02-23T07:33:17;94587.13;;;15.89;59.06
40596;BME280;26304;48.794;9.820;2024-02-23T07:35:40;94583.44;;;15.86;59.07
40596;BME280;26304;48.794;9.820;2024-02-23T07:38:04;94594.66;;;15.87;59.09
40596;BME280;26304;48.794;9.820;2024-02-23T07:40:26;94598.00;;;15.87;58.51
40596;BME280;26304;48.794;9.820;2024-02-23T07:42:48;94598.00;;;15.87;58.57
40596;BME280;26304;48.794;9.820;2024-02-23T07:45:11;94595.06;;;15.85;58.45
40596;BME280;26304;48.794;9.820;2024-02-23T07:47:33;94598.00;;;15.87;58.42
40596;BME280;26304;48.794;9.820;2024-02-23T07:49:56;94591.31;;;15.86;58.62
40596;BME280;26304;48.794;9.820;2024-02-23T07:52:19;94583.44;;;15.86;58.83
40596;BME280;26304;48.794;9.820;2024-02-23T07:54:45;94587.59;;;15.84;58.18
40596;BME280;26304;48.794;9.820;2024-02-23T07:57:07;94589.81;;;15.85;58.83
40596;BME280;26304;48.794;9.820;2024-02-23T07:59:30;94589.88;;;15.82;58.73
40596;BME280;26304;48.794;9.820;2024-02-23T08:01:54;94585.38;;;15.82;58.50
40596;BME280;26304;48.794;9.820;2024-02-23T08:04:16;94573.75;;;15.83;59.21
40596;BME280;26304;48.794;9.820;2024-02-23T08:06:39;94575.63;;;15.83;59.02
40596;BME280;26304;48.794;9.820;2024-02-23T08:09:01;94589.13;;;15.81;58.45
40596;BME280;26304;48.794;9.820;2024-02-23T08:11:25;94590.59;;;15.82;58.79
40596;BME280;26304;48.794;9.820;2024-02-23T08:13:47;94592.88;;;15.80;58.58
40596;BME280;26304;48.794;9.820;2024-02-23T08:16:10;94592.88;;;15.80;59.10
40596;BME280;26304;48.794;9.820;2024-02-23T08:18:32;94582.41;;;15.80;58.60
40596;BME280;26304;48.794;9.820;2024-02-23T08:20:55;94591.72;;;15.81;58.61
40596;BME280;26304;48.794;9.820;2024-02-23T08:23:17;94595.91;;;15.78;59.13
40596;BME280;26304;48.794;9.820;2024-02-23T08:25:41;94589.13;;;15.81;58.63
40596;BME280;26304;48.794;9.820;2024-02-23T08:28:05;94598.91;;;15.77;58.87
40596;BME280;26304;48.794;9.820;2024-02-23T08:30:28;94583.94;;;15.77;59.00
40596;BME280;26304;48.794;9.820;2024-02-23T08:32:50;94594.00;;;15.79;58.83
40596;BME280;26304;48.794;9.820;2024-02-23T08:35:13;94596.66;;;15.75;58.46
40596;BME280;26304;48.794;9.820;2024-02-23T08:37:36;94596.72;;;15.72;58.62
40596;BME280;26304;48.794;9.820;2024-02-23T08:39:58;94604.56;;;15.72;59.11
40596;BME280;26304;48.794;9.820;2024-02-23T08:42:23;94601.59;;;15.70;58.45
40596;BME280;26304;48.794;9.820;2024-02-23T08:44:47;94603.47;;;15.69;58.57
40596;BME280;26304;48.794;9.820;2024-02-23T08:47:09;94607.19;;;15.72;58.90
40596;BME280;26304;48.794;9.820;2024-02-23T08:49:32;94602.63;;;15.76;58.88
40596;BME280;26304;48.794;9.820;2024-02-23T08:51:54;94608.25;;;15.78;58.67
40596;BME280;26304;48.794;9.820;2024-02-23T08:54:19;94607.88;;;15.76;58.18
40596;BME280;26304;48.794;9.820;2024-02-23T08:56:41;94608.66;;;15.73;58.59
40596;BME280;26304;48.794;9.820;2024-02-23T08:59:04;94609.75;;;15.75;58.40
40596;BME280;26304;48.794;9.820;2024-02-23T09:01:28;94600.00;;;15.76;58.50
40596;BME280;26304;48.794;9.820;2024-02-23T09:03:51;94598.91;;;15.77;58.36
40596;BME280;26304;48.794;9.820;2024-02-23T09:06:13;94597.44;;;15.72;58.63
40596;BME280;26304;48.794;9.820;2024-02-23T09:08:35;94602.28;;;15.74;58.39
40596;BME280;26304;48.794;9.820;2024-02-23T09:10:58;94605.63;;;15.74;58.97
40596;BME280;26304;48.794;9.820;2024-02-23T09:13:20;94601.56;;;15.73;58.45
40596;BME280;26304;48.794;9.820;2024-02-23T09:15:43;94611.63;;;15.75;58.44
40596;BME280;26304;48.794;9.820;2024-02-23T09:18:07;94614.66;;;15.73;58.95
40596;BME280;26304;48.794;9.820;2024-02-23T09:20:29;94620.28;;;15.72;58.58
40596;BME280;26304;48.794;9.820;2024-02-23T09:22:51;94612.44;;;15.72;58.53
40596;BME280;26304;48.794;9.820;2024-02-23T09:25:14;94607.22;;;15.68;58.64
40596;BME280;26304;48.794;9.820;2024-02-23T09:27:36;94611.63;;;15.75;58.16
40596;BME280;26304;48.794;9.820;2024-02-23T09:30:05;94625.88;;;15.74;58.49
40596;BME280;26304;48.794;9.820;2024-02-23T09:32:27;94620.97;;;15.76;58.32
40596;BME280;26304;48.794;9.820;2024-02-23T09:34:51;94626.22;;;15.76;58.50
40596;BME280;26304;48.794;9.820;2024-02-23T09:37:13;94627.34;;;15.75;58.54
40596;BME280;26304;48.794;9.820;2024-02-23T09:39:36;94626.59;;;15.74;58.19
40596;BME280;26304;48.794;9.820;2024-02-23T09:41:59;94632.22;;;15.73;58.65
40596;BME280;26304;48.794;9.820;2024-02-23T09:44:26;94622.91;;;15.72;58.40
40596;BME280;26304;48.794;9.820;2024-02-23T09:46:51;94628.88;;;15.72;58.74
40596;BME280;26304;48.794;9.820;2024-02-23T09:49:14;94624.38;;;15.73;58.67
40596;BME280;26304;48.794;9.820;2024-02-23T09:51:39;94633.00;;;15.73;58.76
40596;BME280;26304;48.794;9.820;2024-02-23T09:54:01;94636.00;;;15.72;58.05
40596;BME280;26304;48.794;9.820;2024-02-23T09:56:27;94636.00;;;15.72;58.73
40596;BME280;26304;48.794;9.820;2024-02-23T09:58:50;94637.88;;;15.71;58.29
40596;BME280;26304;48.794;9.820;2024-02-23T10:01:18;94645.31;;;15.73;58.82
40596;BME280;26304;48.794;9.820;2024-02-23T10:03:45;94640.88;;;15.70;58.51
40596;BME280;26304;48.794;9.820;2024-02-23T10:06:07;94638.63;;;15.72;58.49
40596;BME280;26304;48.794;9.820;2024-02-23T10:08:31;94638.63;;;15.72;58.28
40596;BME280;26304;48.794;9.820;2024-02-23T10:10:54;94638.25;;;15.70;58.24
40596;BME280;26304;48.794;9.820;2024-02-23T10:13:18;94630.41;;;15.70;58.71
40596;BME280;26304;48.794;9.820;2024-02-23T10:15:41;94627.78;;;15.70;58.63
40596;BME280;26304;48.794;9.820;2024-02-23T10:18:04;94630.44;;;15.66;58.23
40596;BME280;26304;48.794;9.820;2024-02-23T10:20:27;94631.56;;;15.69;59.02
40596;BME280;26304;48.794;9.820;2024-02-23T10:22:49;94647.59;;;15.71;58.50
40596;BME280;26304;48.794;9.820;2024-02-23T10:25:17;94661.09;;;15.69;59.18
40596;BME280;26304;48.794;9.820;2024-02-23T10:27:40;94661.81;;;15.70;58.74
40596;BME280;26304;48.794;9.820;2024-02-23T10:30:03;94652.06;;;15.74;58.87
40596;BME280;26304;48.794;9.820;2024-02-23T10:32:29;94645.31;;;15.73;58.22
40596;BME280;26304;48.794;9.820;2024-02-23T10:34:52;94639.69;;;15.74;58.25
40596;BME280;26304;48.794;9.820;2024-02-23T10:37:17;94636.34;;;15.74;58.43
40596;BME280;26304;48.794;9.820;2024-02-23T10:39:39;94647.56;;;15.74;58.13
40596;BME280;26304;48.794;9.820;2024-02-23T10:42:04;94648.34;;;15.71;58.92
40596;BME280;26304;48.794;9.820;2024-02-23T10:44:29;94644.94;;;15.74;58.84
40596;BME280;26304;48.794;9.820;2024-02-23T10:46:52;94642.72;;;15.73;58.06
40596;BME280;26304;48.794;9.820;2024-02-23T10:49:17;94643.88;;;15.72;58.42
40596;BME280;26304;48.794;9.820;2024-02-23T10:51:41;94644.19;;;15.74;58.07
40596;BME280;26304;48.794;9.820;2024-02-23T10:54:06;94647.16;;;15.76;57.88
40596;BME280;26304;48.794;9.820;2024-02-23T10:56:28;94647.56;;;15.78;57.59
40596;BME280;26304;48.794;9.820;2024-02-23T10:58:53;94646.81;;;15.77;58.43
40596;BME280;26304;48.794;9.820;2024-02-23T11:01:17;94646.75;;;15.81;57.84
40596;BME280;26304;48.794;9.820;2024-02-23T11:03:42;94651.25;;;15.80;58.42
40596;BME280;26304;48.794;9.820;2024-02-23T11:06:07;94649.03;;;15.79;58.17
40596;BME280;26304;48.794;9.820;2024-02-23T11:08:32;94647.59;;;15.71;58.74
40596;BME280;26304;48.794;9.820;2024-02-23T11:10:55;94650.22;;;15.71;58.55
40596;BME280;26304;48.794;9.820;2024-02-23T11:13:17;94641.91;;;15.76;58.26
40596;BME280;26304;48.794;9.820;2024-02-23T11:15:43;94640.72;;;15.84;58.26
40596;BME280;26304;48.794;9.820;2024-02-23T11:18:21;94635.59;;;15.77;59.22
40596;BME280;26304;48.794;9.820;2024-02-23T11:20:43;94636.34;;;15.74;58.82
40596;BME280;26304;48.794;9.820;2024-02-23T11:23:13;94638.22;;;15.73;58.95
40596;BME280;26304;48.794;9.820;2024-02-23T11:25:36;94639.25;;;15.83;59.05
40596;BME280;26304;48.794;9.820;2024-02-23T11:27:58;94642.28;;;15.82;58.80
40596;BME280;26304;48.794;9.820;2024-02-23T11:30:21;94632.19;;;15.80;58.60
40596;BME280;26304;48.794;9.820;2024-02-23T11:32:46;94632.06;;;15.87;58.29
40596;BME280;26304;48.794;9.820;2024-02-23T11:35:10;94625.00;;;15.84;58.49
40596;BME280;26304;48.794;9.820;2024-02-23T11:37:43;94627.94;;;15.90;58.43
40596;BME280;26304;48.794;9.820;2024-02-23T11:40:07;94623.44;;;15.90;58.71
40596;BME280;26304;48.794;9.820;2024-02-23T11:42:31;94618.19;;;15.90;58.37
40596;BME280;26304;48.794;9.820;2024-02-23T11:44:55;94625.06;;;15.80;58.50
40596;BME280;26304;48.794;9.820;2024-02-23T11:47:19;94621.69;;;15.80;58.59
40596;BME280;26304;48.794;9.820;2024-02-23T11:49:43;94631.84;;;15.78;58.89
40596;BME280;26304;48.794;9.820;2024-02-23T11:52:06;94628.84;;;15.79;58.45
40596;BME280;26304;48.794;9.820;2024-02-23T11:54:28;94628.06;;;15.79;58.84
40596;BME280;26304;48.794;9.820;2024-02-23T11:56:52;94628.47;;;15.77;59.02
40596;BME280;26304;48.794;9.820;2024-02-23T11:59:15;94629.63;;;15.76;58.77
40596;BME280;26304;48.794;9.820;2024-02-23T12:01:38;94620.97;;;15.76;58.89
40596;BME280;26304;48.794;9.820;2024-02-23T12:04:00;94622.13;;;15.75;59.03
40596;BME280;26304;48.794;9.820;2024-02-23T12:06:24;94621.75;;;15.76;58.48
40596;BME280;26304;48.794;9.820;2024-02-23T12:08:50;94619.13;;;15.76;58.23
40596;BME280;26304;48.794;9.820;2024-02-23T12:11:13;94619.13;;;15.76;58.64
40596;BME280;26304;48.794;9.820;2024-02-23T12:13:36;94616.13;;;15.78;58.25
40596;BME280;26304;48.794;9.820;2024-02-23T12:15:58;94611.28;;;15.76;58.80
40596;BME280;26304;48.794;9.820;2024-02-23T12:18:21;94595.16;;;15.78;58.56
40596;BME280;26304;48.794;9.820;2024-02-23T12:20:47;94601.91;;;15.75;58.21
40596;BME280;26304;48.794;9.820;2024-02-23T12:23:11;94593.66;;;15.77;58.48
40596;BME280;26304;48.794;9.820;2024-02-23T12:25:34;94605.63;;;15.74;58.18
40596;BME280;26304;48.794;9.820;2024-02-23T12:27:57;94601.16;;;15.75;58.25
40596;BME280;26304;48.794;9.820;2024-02-23T12:30:21;94600.81;;;15.76;58.58
40596;BME280;26304;48.794;9.820;2024-02-23T12:32:43;94606.78;;;15.77;58.44
40596;BME280;26304;48.794;9.820;2024-02-23T12:35:06;94603.78;;;15.75;57.90
40596;BME280;26304;48.794;9.820;2024-02-23T12:37:34;94599.31;;;15.72;58.53